Estación Meteorológica Peña el Pijo (Robertgarden) [ 11/16/19 02:11:58 CET ]

Fecha Hora Presion(HPa) Temp (°C) Humedad % Rocio (°C) Viento ( m/s) Direccion Lluvia 1Hora(mm) Lluvia 24H(mm) LLuvia Total(mm)
2019-Jul-23 01:01:44 1015.200 22.6 35 6.3         344.18
2019-Jul-23 02:01:55 1014.900 21.5 36 5.7         344.18
2019-Jul-23 03:01:42 1014.400 20.3 40 6.3 1.1 SW     344.18
2019-Jul-23 04:01:40 1013.800 19.8 42 6.5         344.18
2019-Jul-23 05:01:46 1013.500 18.6 45 6.4         344.18
2019-Jul-23 06:01:44 1013.400 16.1 51 6.0         344.18
2019-Jul-23 07:01:46 1013.400 14.9 57 6.4         344.18
2019-Jul-23 08:01:46 1013.400 15.3 59 7.3         344.18
2019-Jul-23 09:01:38 1013.200 22.1 38 7.1         344.18
2019-Jul-23 10:02:02 1013.300 28.0 29 8.2         344.18
2019-Jul-23 11:01:42 1013.200 31.8 24 8.5         344.18
2019-Jul-23 12:01:48 1013.200 32.1 22 7.6         344.18
2019-Jul-23 13:01:58 1013.300 32.1 21 7.0         344.18
2019-Jul-23 14:01:43 1013.100 33.2 21 7.9         344.18
2019-Jul-23 15:01:43 1012.900 32.8 21 7.5         344.18
2019-Jul-23 16:01:47 1012.500 32.8 21 7.5         344.18
2019-Jul-23 17:01:49 1012.300 34.5 19 7.3         344.18
2019-Jul-23 18:01:41 1012.400 33.7 20 7.7         344.18
2019-Jul-23 19:01:37 1012.400 31.7 21 6.6         344.18
2019-Jul-23 20:01:34 1012.000 29.8 23 6.2 0.1 WSW     344.18
2019-Jul-23 21:01:34 1012.000 27.9 27 6.4         344.18
2019-Jul-23 22:01:38 1012.800 26.4 28 6.3         344.18
2019-Jul-23 23:01:49 1013.200 24.4 32 6.6         344.18

Temperatura Máxima:34°    Temperatura Mínima:14°
Presión Máxima:1015.200 Hpa    Presión Mínima:1012.000 Hpa


Volver